Time;durP1;ratioP1;P1;durP2;ratioP2;P2;SDS_P1;SDS_P2;PMS_P1;PMS_P2;Temp;Humidity;BMP_temperature;BMP_pressure;BME280_temperature;BME280_humidity;BME280_pressure;Samples;Min_cycle;Max_cycle;Signal;HPM_P1;HPM_P2
2022/11/25 00:00:47;;;;;;;;;;;7.00;76.00;;;;;;5044182;27;88248;-40
2022/11/25 00:03:12;;;;;;;;;;;6.90;75.30;;;;;;5043877;28;87190;-40
2022/11/25 00:05:38;;;;;;;;;;;7.00;75.40;;;;;;5043938;28;88338;-39
2022/11/25 00:08:03;;;;;;;;;;;6.90;75.40;;;;;;5044218;27;87293;-39
2022/11/25 00:10:29;;;;;;;;;;;6.90;75.40;;;;;;5043770;28;87820;-39
2022/11/25 00:12:54;;;;;;;;;;;6.90;75.40;;;;;;5047011;28;87173;-40
2022/11/25 00:15:20;;;;;;;;;;;6.90;75.40;;;;;;5044240;28;87409;-40
2022/11/25 00:17:45;;;;;;;;;;;6.90;75.40;;;;;;5044065;28;87120;-40
2022/11/25 00:20:11;;;;;;;;;;;6.90;75.50;;;;;;5044097;28;87350;-40
2022/11/25 00:22:37;;;;;;;;;;;6.90;75.40;;;;;;5042749;28;88834;-40
2022/11/25 00:25:02;;;;;;;;;;;6.90;75.40;;;;;;5043666;28;87193;-40
2022/11/25 00:27:28;;;;;;;;;;;6.90;75.50;;;;;;5043831;28;87237;-40
2022/11/25 00:29:53;;;;;;;;;;;6.90;75.40;;;;;;5043363;28;88196;-40
2022/11/25 00:32:18;;;;;;;;;;;6.90;75.50;;;;;;5043924;28;87121;-40
2022/11/25 00:34:44;;;;;;;;;;;6.90;75.40;;;;;;5046222;28;87395;-40
2022/11/25 00:37:09;;;;;;;;;;;6.90;75.50;;;;;;5043755;28;87626;-40
2022/11/25 00:39:35;;;;;;;;;;;6.90;75.50;;;;;;5043994;28;87364;-40
2022/11/25 00:44:45;;;;;;;;;;;6.90;75.50;;;;;;5043281;28;87098;-40
2022/11/25 00:47:10;;;;;;;;;;;6.90;75.30;;;;;;5042943;28;88050;-40
2022/11/25 00:49:37;;;;;;;;;;;6.90;75.50;;;;;;5042930;28;89400;-39
2022/11/25 00:52:02;;;;;;;;;;;6.90;75.40;;;;;;5043145;28;87312;-40
2022/11/25 00:54:28;;;;;;;;;;;6.90;75.40;;;;;;5043323;28;88751;-40
2022/11/25 00:56:53;;;;;;;;;;;6.90;75.40;;;;;;5045123;27;87250;-40
2022/11/25 00:59:19;;;;;;;;;;;6.90;75.50;;;;;;5043312;27;88010;-40
2022/11/25 01:01:45;;;;;;;;;;;6.90;75.50;;;;;;5042930;28;88114;-40
2022/11/25 01:04:10;;;;;;;;;;;6.90;75.50;;;;;;5042217;28;86339;-40
2022/11/25 01:06:36;;;;;;;;;;;6.90;75.50;;;;;;5043100;27;86980;-40
2022/11/25 01:09:02;;;;;;;;;;;6.90;75.40;;;;;;5043092;28;88098;-40
2022/11/25 01:11:28;;;;;;;;;;;6.80;75.50;;;;;;5042469;28;87955;-40
2022/11/25 01:13:55;;;;;;;;;;;6.80;75.70;;;;;;5043058;28;88199;-40
2022/11/25 01:16:21;;;;;;;;;;;6.80;75.60;;;;;;5042816;28;87909;-40
2022/11/25 01:18:46;;;;;;;;;;;6.80;75.40;;;;;;5046098;28;87094;-40
2022/11/25 01:21:16;;;;;;;;;;;6.80;75.50;;;;;;5042390;28;89174;-40
2022/11/25 01:23:41;;;;;;;;;;;6.80;75.40;;;;;;5043212;28;87384;-40
2022/11/25 01:26:09;;;;;;;;;;;6.80;75.40;;;;;;5042883;28;87388;-40
2022/11/25 01:28:34;;;;;;;;;;;6.80;75.50;;;;;;5043112;28;87309;-40
2022/11/25 01:31:01;;;;;;;;;;;6.80;75.60;;;;;;5042891;28;87103;-40
2022/11/25 01:33:26;;;;;;;;;;;6.80;75.60;;;;;;5042659;28;89181;-40
2022/11/25 01:35:52;;;;;;;;;;;6.80;75.50;;;;;;5041619;28;88783;-40
2022/11/25 01:38:17;;;;;;;;;;;6.80;75.50;;;;;;5042876;28;87051;-40
2022/11/25 01:40:43;;;;;;;;;;;6.80;75.50;;;;;;5045238;28;87579;-40
2022/11/25 01:43:14;;;;;;;;;;;6.80;75.30;;;;;;5042764;28;87158;-40
2022/11/25 01:45:40;;;;;;;;;;;6.80;75.40;;;;;;5041973;27;87766;-40
2022/11/25 01:48:14;;;;;;;;;;;6.80;75.50;;;;;;5042179;28;88057;-40
2022/11/25 01:50:40;;;;;;;;;;;6.80;75.60;;;;;;5042447;28;87582;-40
2022/11/25 01:53:07;;;;;;;;;;;6.80;75.60;;;;;;5043303;27;87221;-40
2022/11/25 01:55:35;;;;;;;;;;;6.80;75.40;;;;;;5042107;28;88140;-40
2022/11/25 01:58:03;;;;;;;;;;;6.80;75.40;;;;;;5042491;28;87092;-40
2022/11/25 02:00:29;;;;;;;;;;;6.80;75.30;;;;;;5044620;28;87974;-40
2022/11/25 02:02:56;;;;;;;;;;;6.80;75.50;;;;;;5042437;28;87054;-40
2022/11/25 02:05:25;;;;;;;;;;;6.80;75.60;;;;;;5042360;28;87768;-40
2022/11/25 02:07:52;;;;;;;;;;;6.70;75.30;;;;;;5042086;27;88083;-40
2022/11/25 02:10:21;;;;;;;;;;;6.80;75.50;;;;;;5044811;28;87119;-40
2022/11/25 02:12:47;;;;;;;;;;;6.80;75.50;;;;;;5045956;27;87448;-40
2022/11/25 02:15:13;;;;;;;;;;;6.80;75.50;;;;;;5045672;28;87913;-40
2022/11/25 02:17:38;;;;;;;;;;;6.70;75.60;;;;;;5046241;28;86427;-40
2022/11/25 02:20:09;;;;;;;;;;;6.70;75.60;;;;;;5045644;28;87162;-40
2022/11/25 02:22:53;;;;;;;;;;;6.70;75.50;;;;;;5048301;28;87961;-40
2022/11/25 02:25:23;;;;;;;;;;;6.70;75.50;;;;;;5045220;27;88059;-40
2022/11/25 02:27:51;;;;;;;;;;;6.70;75.60;;;;;;5045283;28;86983;-40
2022/11/25 02:30:17;;;;;;;;;;;6.70;75.60;;;;;;5045398;28;88354;-40
2022/11/25 02:32:43;;;;;;;;;;;6.70;75.60;;;;;;5045763;27;87076;-40
2022/11/25 02:35:41;;;;;;;;;;;6.70;75.50;;;;;;5044971;28;88049;-40
2022/11/25 02:38:07;;;;;;;;;;;6.70;75.60;;;;;;5021998;28;87228;-40
2022/11/25 02:40:55;;;;;;;;;;;6.70;75.60;;;;;;5045600;27;87115;-40
2022/11/25 02:43:21;;;;;;;;;;;6.70;75.60;;;;;;5039364;28;87387;-40
2022/11/25 02:45:49;;;;;;;;;;;6.70;75.50;;;;;;5047725;28;87156;-40
2022/11/25 02:48:14;;;;;;;;;;;6.70;75.50;;;;;;5044650;28;88108;-40
2022/11/25 02:50:40;;;;;;;;;;;6.70;75.60;;;;;;5044832;28;87948;-40
2022/11/25 02:53:06;;;;;;;;;;;6.70;75.50;;;;;;5045370;28;88445;-40
2022/11/25 02:55:32;;;;;;;;;;;6.70;75.60;;;;;;5044568;28;89375;-39
2022/11/25 02:57:58;;;;;;;;;;;6.60;76.20;;;;;;5045463;28;87094;-39
2022/11/25 03:00:23;;;;;;;;;;;6.70;75.60;;;;;;5045358;28;87372;-39
2022/11/25 03:02:51;;;;;;;;;;;6.70;75.50;;;;;;5044627;28;89159;-39
2022/11/25 03:05:17;;;;;;;;;;;6.70;75.60;;;;;;5044908;28;87099;-39
2022/11/25 03:07:42;;;;;;;;;;;6.70;75.50;;;;;;5048156;28;88044;-39
2022/11/25 03:10:08;;;;;;;;;;;6.70;75.50;;;;;;5044839;28;87131;-39
2022/11/25 03:12:34;;;;;;;;;;;6.70;75.50;;;;;;5045123;27;87407;-39
2022/11/25 03:14:59;;;;;;;;;;;6.70;75.60;;;;;;5044163;28;88877;-39
2022/11/25 03:17:25;;;;;;;;;;;6.70;75.50;;;;;;5045252;28;87083;-39
2022/11/25 03:19:50;;;;;;;;;;;6.70;75.50;;;;;;5044424;28;87248;-39
2022/11/25 03:22:16;;;;;;;;;;;6.70;75.40;;;;;;5044361;28;88243;-39
2022/11/25 03:24:41;;;;;;;;;;;6.60;75.50;;;;;;5044238;28;87249;-39
2022/11/25 03:27:07;;;;;;;;;;;6.70;75.40;;;;;;5044684;28;87495;-39
2022/11/25 03:29:32;;;;;;;;;;;6.70;75.50;;;;;;5047384;28;88947;-39
2022/11/25 03:31:58;;;;;;;;;;;6.60;75.50;;;;;;5045406;28;87401;-39
2022/11/25 03:34:23;;;;;;;;;;;6.60;75.50;;;;;;5044530;28;87599;-39
2022/11/25 03:36:49;;;;;;;;;;;6.60;75.50;;;;;;5044449;28;87071;-39
2022/11/25 03:39:15;;;;;;;;;;;6.60;75.50;;;;;;5043888;28;88265;-39
2022/11/25 03:41:40;;;;;;;;;;;6.70;75.50;;;;;;5044099;28;89791;-39
2022/11/25 03:44:06;;;;;;;;;;;6.60;75.50;;;;;;5044027;28;87158;-39
2022/11/25 03:46:31;;;;;;;;;;;6.70;75.50;;;;;;5044612;28;87454;-39
2022/11/25 03:48:57;;;;;;;;;;;6.60;75.50;;;;;;5044032;28;89513;-40
2022/11/25 03:51:22;;;;;;;;;;;6.60;75.30;;;;;;5047242;28;87589;-40
2022/11/25 03:53:48;;;;;;;;;;;6.60;75.60;;;;;;5043939;28;87679;-40
2022/11/25 03:56:13;;;;;;;;;;;6.60;75.50;;;;;;5044930;28;86464;-40
2022/11/25 03:58:39;;;;;;;;;;;6.60;75.40;;;;;;5044323;27;87037;-40
2022/11/25 04:01:04;;;;;;;;;;;6.60;75.50;;;;;;5043994;28;88120;-40
2022/11/25 04:03:30;;;;;;;;;;;6.60;75.40;;;;;;5043784;28;88184;-40
2022/11/25 04:05:55;;;;;;;;;;;6.60;75.50;;;;;;5044244;27;88241;-40
2022/11/25 04:08:21;;;;;;;;;;;6.60;75.50;;;;;;5043651;28;88153;-40
2022/11/25 04:10:50;;;;;;;;;;;6.60;75.50;;;;;;5047180;28;87106;-40
2022/11/25 04:13:15;;;;;;;;;;;6.60;75.40;;;;;;5043837;28;87876;-40
2022/11/25 04:15:45;;;;;;;;;;;6.60;75.40;;;;;;5043922;28;87106;-40
2022/11/25 04:18:11;;;;;;;;;;;6.60;75.30;;;;;;5043796;27;88645;-39
2022/11/25 04:20:37;;;;;;;;;;;6.60;75.30;;;;;;5044093;28;87340;-39
2022/11/25 04:23:02;;;;;;;;;;;6.60;75.30;;;;;;5043772;28;87153;-39
2022/11/25 04:25:28;;;;;;;;;;;6.60;75.40;;;;;;5043658;27;88612;-39
2022/11/25 04:27:53;;;;;;;;;;;6.50;75.30;;;;;;5042961;28;89049;-39
2022/11/25 04:30:19;;;;;;;;;;;6.50;75.50;;;;;;5043944;28;87098;-39
2022/11/25 04:32:44;;;;;;;;;;;6.60;75.50;;;;;;5045581;27;87683;-39
2022/11/25 04:35:10;;;;;;;;;;;6.50;75.50;;;;;;5043751;28;87146;-39
2022/11/25 04:37:35;;;;;;;;;;;6.50;75.40;;;;;;5043767;28;87495;-39
2022/11/25 04:40:01;;;;;;;;;;;6.60;75.50;;;;;;5043368;28;88092;-39
2022/11/25 04:42:33;;;;;;;;;;;6.60;75.40;;;;;;5043751;28;87094;-39
2022/11/25 04:44:59;;;;;;;;;;;6.50;75.30;;;;;;5043447;27;89039;-39
2022/11/25 04:47:25;;;;;;;;;;;6.60;75.40;;;;;;5042933;28;88164;-39
2022/11/25 04:49:50;;;;;;;;;;;6.50;75.40;;;;;;5043628;28;86882;-39
2022/11/25 04:52:16;;;;;;;;;;;6.50;75.30;;;;;;5042841;28;88339;-39
2022/11/25 04:54:41;;;;;;;;;;;6.50;75.30;;;;;;5045985;28;88159;-39
2022/11/25 04:57:08;;;;;;;;;;;6.50;75.30;;;;;;5043519;28;87561;-39
2022/11/25 04:59:39;;;;;;;;;;;6.50;75.40;;;;;;5043091;28;87968;-39
2022/11/25 05:02:18;;;;;;;;;;;6.50;75.40;;;;;;5043131;28;86850;-39
2022/11/25 05:04:45;;;;;;;;;;;6.50;75.50;;;;;;5043194;27;87429;-40
2022/11/25 05:07:10;;;;;;;;;;;6.50;75.40;;;;;;5042742;28;88030;-40
2022/11/25 05:09:36;;;;;;;;;;;6.50;75.40;;;;;;5043827;28;86468;-40
2022/11/25 05:12:02;;;;;;;;;;;6.50;75.50;;;;;;5043268;27;86864;-39
2022/11/25 05:14:27;;;;;;;;;;;6.50;75.50;;;;;;5042778;28;88225;-40
2022/11/25 05:16:53;;;;;;;;;;;6.50;75.50;;;;;;5045464;28;88123;-40
2022/11/25 05:19:18;;;;;;;;;;;6.50;75.30;;;;;;5042787;28;88071;-40
2022/11/25 05:21:44;;;;;;;;;;;6.50;75.40;;;;;;5042973;28;87221;-40
2022/11/25 05:24:09;;;;;;;;;;;6.50;75.40;;;;;;5043116;28;87323;-40
2022/11/25 05:26:35;;;;;;;;;;;6.50;75.50;;;;;;5042395;28;89274;-40
2022/11/25 05:29:00;;;;;;;;;;;6.50;75.40;;;;;;5043083;28;87094;-40
2022/11/25 05:31:26;;;;;;;;;;;6.50;75.50;;;;;;5042736;27;88049;-39
2022/11/25 05:33:51;;;;;;;;;;;6.50;75.50;;;;;;5042978;28;87303;-40
2022/11/25 05:36:17;;;;;;;;;;;6.50;75.50;;;;;;5042728;28;87087;-40
2022/11/25 05:38:42;;;;;;;;;;;6.50;75.60;;;;;;5045497;28;87275;-40
2022/11/25 05:41:09;;;;;;;;;;;6.50;75.40;;;;;;5042054;28;87980;-40
2022/11/25 05:43:35;;;;;;;;;;;6.50;75.40;;;;;;5042678;27;87393;-40
2022/11/25 05:46:07;;;;;;;;;;;6.50;75.40;;;;;;5042108;28;88225;-40
2022/11/25 05:48:33;;;;;;;;;;;6.50;75.50;;;;;;5042569;28;86963;-40
2022/11/25 05:51:02;;;;;;;;;;;6.40;75.50;;;;;;5042370;28;87843;-40
2022/11/25 05:53:28;;;;;;;;;;;6.50;75.40;;;;;;5042166;28;88107;-40
2022/11/25 05:55:55;;;;;;;;;;;6.50;75.50;;;;;;5042572;28;86928;-40
2022/11/25 05:58:21;;;;;;;;;;;6.40;75.50;;;;;;5045563;27;87822;-40
2022/11/25 06:00:46;;;;;;;;;;;6.40;75.60;;;;;;5042631;28;87163;-40
2022/11/25 06:03:12;;;;;;;;;;;6.40;75.50;;;;;;5042438;28;87622;-40
2022/11/25 06:05:37;;;;;;;;;;;6.40;75.50;;;;;;5041459;28;88880;-40
2022/11/25 06:08:03;;;;;;;;;;;6.40;75.70;;;;;;5042439;28;87141;-40
2022/11/25 06:10:28;;;;;;;;;;;6.40;75.50;;;;;;5042553;27;87691;-40
2022/11/25 06:12:54;;;;;;;;;;;6.40;75.60;;;;;;5042159;28;87260;-40
2022/11/25 06:15:19;;;;;;;;;;;6.40;75.50;;;;;;5042340;28;87108;-40
2022/11/25 06:17:45;;;;;;;;;;;6.40;75.50;;;;;;5042271;28;87362;-39
2022/11/25 06:20:10;;;;;;;;;;;6.40;75.70;;;;;;5044617;28;88013;-39
2022/11/25 06:22:36;;;;;;;;;;;6.40;75.60;;;;;;5042728;28;87354;-39
2022/11/25 06:25:01;;;;;;;;;;;6.40;75.50;;;;;;5041947;28;88024;-39
2022/11/25 06:27:27;;;;;;;;;;;6.40;75.70;;;;;;5042022;28;87160;-39
2022/11/25 06:29:52;;;;;;;;;;;6.40;75.60;;;;;;5041615;28;87960;-39
2022/11/25 06:32:18;;;;;;;;;;;6.40;75.50;;;;;;5041826;28;88076;-39
2022/11/25 06:34:43;;;;;;;;;;;6.40;75.50;;;;;;5041950;28;87045;-39
2022/11/25 06:37:09;;;;;;;;;;;6.40;75.50;;;;;;5042371;28;87861;-40
2022/11/25 06:39:34;;;;;;;;;;;6.40;75.50;;;;;;5041737;28;87853;-40
2022/11/25 06:42:00;;;;;;;;;;;6.40;75.50;;;;;;5045231;28;87138;-40
2022/11/25 06:44:25;;;;;;;;;;;6.40;75.50;;;;;;5041331;28;87166;-40
2022/11/25 06:46:51;;;;;;;;;;;6.40;75.50;;;;;;5042616;28;86419;-40
2022/11/25 06:49:16;;;;;;;;;;;6.40;75.60;;;;;;5041907;28;87056;-40
2022/11/25 06:51:42;;;;;;;;;;;6.40;75.50;;;;;;5041380;28;88187;-40
2022/11/25 06:54:09;;;;;;;;;;;6.40;75.50;;;;;;5041271;27;88010;-40
2022/11/25 06:56:34;;;;;;;;;;;6.40;75.50;;;;;;5044483;27;88124;-40
2022/11/25 06:59:00;;;;;;;;;;;6.40;75.40;;;;;;5045002;28;88154;-40
2022/11/25 07:01:27;;;;;;;;;;;6.40;75.60;;;;;;5045401;28;87031;-40
2022/11/25 07:03:58;;;;;;;;;;;6.40;75.50;;;;;;5047688;27;87380;-40
2022/11/25 07:06:23;;;;;;;;;;;6.40;75.40;;;;;;5045038;28;87023;-40
2022/11/25 07:08:49;;;;;;;;;;;6.40;75.40;;;;;;5045152;28;87061;-40
2022/11/25 07:11:16;;;;;;;;;;;6.40;75.40;;;;;;5045343;28;87358;-40
2022/11/25 07:13:42;;;;;;;;;;;6.40;75.60;;;;;;5045303;28;87001;-40
2022/11/25 07:16:09;;;;;;;;;;;6.40;75.70;;;;;;5045058;27;87003;-40
2022/11/25 07:18:35;;;;;;;;;;;6.40;75.50;;;;;;5043989;28;89000;-40
2022/11/25 07:21:05;;;;;;;;;;;6.40;75.40;;;;;;5044617;28;86997;-39
2022/11/25 07:23:31;;;;;;;;;;;6.40;75.70;;;;;;5044837;27;88918;-39
2022/11/25 07:26:01;;;;;;;;;;;6.40;75.50;;;;;;5047220;28;88100;-39
2022/11/25 07:28:26;;;;;;;;;;;6.40;75.40;;;;;;5044966;27;87389;-40
2022/11/25 07:30:52;;;;;;;;;;;6.40;75.30;;;;;;5044314;28;88001;-40
2022/11/25 07:33:17;;;;;;;;;;;6.50;75.40;;;;;;5044726;28;87154;-40
2022/11/25 07:35:43;;;;;;;;;;;6.40;75.20;;;;;;5045151;28;87475;-40
2022/11/25 07:38:08;;;;;;;;;;;6.40;75.30;;;;;;5044329;28;88895;-40
2022/11/25 07:40:34;;;;;;;;;;;6.40;75.40;;;;;;5044536;28;87119;-40
2022/11/25 07:42:59;;;;;;;;;;;6.40;75.40;;;;;;5044052;28;87822;-40
2022/11/25 07:45:25;;;;;;;;;;;6.40;75.30;;;;;;5043798;28;88173;-40
2022/11/25 07:47:52;;;;;;;;;;;6.40;75.30;;;;;;5046801;28;87143;-39
2022/11/25 07:50:18;;;;;;;;;;;6.40;75.30;;;;;;5043958;28;88275;-39
2022/11/25 07:52:43;;;;;;;;;;;6.40;75.30;;;;;;5044584;28;87152;-39
2022/11/25 07:55:09;;;;;;;;;;;6.40;75.40;;;;;;5044412;28;87587;-39
2022/11/25 07:57:34;;;;;;;;;;;6.40;75.30;;;;;;5043785;28;89313;-39
2022/11/25 08:00:00;;;;;;;;;;;6.40;75.40;;;;;;5044760;28;86407;-39
2022/11/25 08:02:25;;;;;;;;;;;6.40;75.20;;;;;;5044073;27;87106;-39
2022/11/25 08:04:51;;;;;;;;;;;6.40;75.30;;;;;;5043351;28;89222;-39
2022/11/25 08:07:16;;;;;;;;;;;6.40;75.30;;;;;;5046487;27;88061;-40
2022/11/25 08:09:42;;;;;;;;;;;6.40;75.30;;;;;;5043948;28;87939;-39
2022/11/25 08:12:07;;;;;;;;;;;6.40;75.30;;;;;;5044297;28;87091;-40
2022/11/25 08:14:34;;;;;;;;;;;6.40;75.30;;;;;;5043737;27;88795;-39
2022/11/25 08:16:59;;;;;;;;;;;6.40;75.10;;;;;;5043326;28;89259;-39
2022/11/25 08:19:25;;;;;;;;;;;6.40;75.30;;;;;;5043811;28;87081;-39
2022/11/25 08:21:50;;;;;;;;;;;6.40;75.10;;;;;;5043980;28;87278;-39
2022/11/25 08:24:17;;;;;;;;;;;6.40;75.10;;;;;;5044229;28;87279;-39
2022/11/25 08:26:43;;;;;;;;;;;6.40;75.30;;;;;;5043719;28;87165;-39
2022/11/25 08:29:09;;;;;;;;;;;6.40;75.40;;;;;;5046407;27;87513;-39
2022/11/25 08:31:36;;;;;;;;;;;6.40;75.30;;;;;;5043081;28;88078;-39
2022/11/25 08:34:03;;;;;;;;;;;6.40;75.30;;;;;;5043327;28;88382;-39
2022/11/25 08:36:29;;;;;;;;;;;6.40;75.10;;;;;;5043394;28;88019;-39
2022/11/25 08:38:56;;;;;;;;;;;6.40;75.30;;;;;;5043628;28;87120;-39
2022/11/25 08:41:23;;;;;;;;;;;6.40;75.20;;;;;;5043545;27;88818;-39
2022/11/25 08:43:49;;;;;;;;;;;6.40;75.10;;;;;;5043395;28;87173;-39
2022/11/25 08:46:16;;;;;;;;;;;6.40;75.00;;;;;;5043452;28;87115;-39
2022/11/25 08:48:42;;;;;;;;;;;6.40;75.20;;;;;;5043509;27;87310;-39
2022/11/25 08:51:12;;;;;;;;;;;6.40;75.10;;;;;;5045825;28;89247;-39
2022/11/25 08:53:38;;;;;;;;;;;6.40;75.00;;;;;;5043469;27;87338;-39
2022/11/25 08:56:04;;;;;;;;;;;6.40;75.10;;;;;;5042444;28;89065;-39
2022/11/25 08:58:30;;;;;;;;;;;6.40;75.10;;;;;;5043611;28;87127;-39
2022/11/25 09:00:55;;;;;;;;;;;6.40;75.00;;;;;;5043288;28;87282;-39
2022/11/25 09:03:21;;;;;;;;;;;6.40;74.90;;;;;;5042856;28;87702;-39
2022/11/25 09:05:47;;;;;;;;;;;6.40;74.90;;;;;;5042934;28;86976;-39
2022/11/25 09:08:13;;;;;;;;;;;6.40;74.90;;;;;;5043018;27;88730;-40
2022/11/25 09:10:39;;;;;;;;;;;6.30;75.20;;;;;;5042808;28;88061;-39
2022/11/25 09:13:04;;;;;;;;;;;6.30;75.30;;;;;;5046639;28;86393;-40
2022/11/25 09:15:30;;;;;;;;;;;6.40;75.10;;;;;;5042547;28;89223;-39
2022/11/25 09:17:59;;;;;;;;;;;6.30;75.30;;;;;;5042095;27;87270;-39
2022/11/25 09:20:25;;;;;;;;;;;6.40;75.20;;;;;;5042182;27;88175;-40
2022/11/25 09:22:50;;;;;;;;;;;6.30;75.20;;;;;;5042709;28;87942;-40
2022/11/25 09:25:16;;;;;;;;;;;6.40;75.10;;;;;;5043047;28;87158;-40
2022/11/25 09:27:41;;;;;;;;;;;6.40;75.00;;;;;;5043097;28;87374;-39
2022/11/25 09:30:07;;;;;;;;;;;6.40;75.00;;;;;;5042708;28;88008;-39
2022/11/25 09:32:32;;;;;;;;;;;6.40;75.10;;;;;;5042969;28;86977;-39
2022/11/25 09:34:58;;;;;;;;;;;6.40;75.00;;;;;;5045511;28;87502;-39
2022/11/25 09:37:23;;;;;;;;;;;6.50;74.70;;;;;;5043586;28;86453;-40
2022/11/25 09:39:54;;;;;;;;;;;6.50;74.60;;;;;;5043381;28;87498;-40
2022/11/25 09:48:20;;;;;;;;;;;6.50;74.60;;;;;;5042713;28;87478;-40
2022/11/25 09:50:58;;;;;;;;;;;6.40;75.00;;;;;;5042437;28;88099;-39
2022/11/25 09:53:32;;;;;;;;;;;6.40;74.70;;;;;;5042724;28;87041;-39
2022/11/25 09:56:01;;;;;;;;;;;6.50;74.90;;;;;;5042785;27;87487;-39
2022/11/25 09:58:39;;;;;;;;;;;6.40;74.80;;;;;;5045182;28;87982;-39
2022/11/25 10:01:06;;;;;;;;;;;6.40;74.90;;;;;;5042426;27;87541;-39
2022/11/25 10:03:35;;;;;;;;;;;6.50;74.80;;;;;;5042679;28;87222;-39
2022/11/25 10:06:03;;;;;;;;;;;6.50;74.80;;;;;;5042259;28;87532;-39
2022/11/25 10:08:32;;;;;;;;;;;6.50;74.70;;;;;;5042631;27;87338;-40
2022/11/25 10:11:06;;;;;;;;;;;6.40;74.90;;;;;;5041122;28;90495;-39
2022/11/25 10:14:04;;;;;;;;;;;6.50;74.60;;;;;;5042417;28;87026;-40
2022/11/25 10:16:34;;;;;;;;;;;6.50;74.70;;;;;;5018563;27;87274;-40
2022/11/25 10:19:01;;;;;;;;;;;6.50;74.90;;;;;;5044480;28;89353;-39
2022/11/25 10:21:27;;;;;;;;;;;6.50;74.60;;;;;;5042300;27;87002;-42
2022/11/25 10:23:53;;;;;;;;;;;6.50;74.50;;;;;;5041952;28;87969;-40
2022/11/25 10:26:20;;;;;;;;;;;6.50;74.60;;;;;;5042250;28;87109;-39
2022/11/25 10:28:50;;;;;;;;;;;6.60;74.60;;;;;;5042795;27;87388;-39
2022/11/25 10:31:17;;;;;;;;;;;6.60;74.50;;;;;;5044082;28;87195;-39
2022/11/25 10:33:44;;;;;;;;;;;6.60;74.60;;;;;;5045518;28;87110;-39
2022/11/25 10:36:22;;;;;;;;;;;6.60;74.40;;;;;;5045274;28;87892;-39
2022/11/25 10:39:00;;;;;;;;;;;6.60;74.40;;;;;;5045404;28;87261;-40
2022/11/25 10:41:27;;;;;;;;;;;6.60;74.30;;;;;;5048558;28;87057;-40
2022/11/25 10:43:52;;;;;;;;;;;6.60;74.30;;;;;;5044926;28;89781;-40
2022/11/25 10:46:27;;;;;;;;;;;6.60;74.40;;;;;;5045185;28;88135;-40
2022/11/25 10:48:55;;;;;;;;;;;6.60;74.40;;;;;;5045068;28;87711;-40
2022/11/25 10:51:26;;;;;;;;;;;6.60;74.60;;;;;;5045189;28;88055;-40
2022/11/25 10:54:12;;;;;;;;;;;6.60;74.50;;;;;;5045946;28;86486;-40
2022/11/25 10:56:55;;;;;;;;;;;6.60;74.60;;;;;;5045350;28;87051;-40
2022/11/25 10:59:23;;;;;;;;;;;6.60;74.50;;;;;;5044727;28;87168;-40
2022/11/25 11:01:50;;;;;;;;;;;6.60;74.60;;;;;;5044496;28;88066;-40
2022/11/25 11:04:17;;;;;;;;;;;6.60;74.60;;;;;;5047767;27;88348;-40
2022/11/25 11:06:47;;;;;;;;;;;6.60;74.60;;;;;;5044572;28;87272;-39
2022/11/25 11:09:30;;;;;;;;;;;6.60;74.60;;;;;;5045196;27;87256;-39
2022/11/25 11:11:56;;;;;;;;;;;6.60;74.80;;;;;;5044751;28;87861;-39
2022/11/25 11:14:21;;;;;;;;;;;6.60;74.70;;;;;;5045049;28;87132;-39
2022/11/25 11:16:53;;;;;;;;;;;6.50;74.80;;;;;;5045109;27;87264;-39
2022/11/25 11:19:21;;;;;;;;;;;6.60;74.90;;;;;;5044821;28;88575;-39
2022/11/25 11:21:47;;;;;;;;;;;6.50;74.60;;;;;;5045003;28;87154;-39
2022/11/25 11:24:22;;;;;;;;;;;6.60;75.00;;;;;;5044921;27;87387;-39
2022/11/25 11:26:59;;;;;;;;;;;6.60;74.70;;;;;;5046436;28;90396;-40
2022/11/25 11:29:25;;;;;;;;;;;6.60;74.80;;;;;;5044912;27;87458;-40
2022/11/25 11:31:55;;;;;;;;;;;6.60;74.70;;;;;;5044295;28;88038;-40
2022/11/25 11:34:39;;;;;;;;;;;6.60;74.80;;;;;;5044476;28;86928;-40
2022/11/25 11:37:05;;;;;;;;;;;6.70;74.90;;;;;;5044789;27;87321;-40
2022/11/25 11:39:34;;;;;;;;;;;6.60;74.70;;;;;;5044378;28;87972;-40
2022/11/25 11:42:08;;;;;;;;;;;6.60;74.70;;;;;;5043904;27;87138;-40
2022/11/25 11:44:45;;;;;;;;;;;6.60;74.80;;;;;;5045006;28;87362;-40
2022/11/25 11:47:14;;;;;;;;;;;6.70;74.80;;;;;;5044116;28;87533;-39
2022/11/25 11:49:48;;;;;;;;;;;6.70;74.80;;;;;;5046951;28;87158;-39
2022/11/25 11:52:14;;;;;;;;;;;6.70;74.70;;;;;;5043529;28;89014;-39
2022/11/25 11:54:44;;;;;;;;;;;6.70;74.70;;;;;;5042756;28;87117;-39
2022/11/25 11:57:27;;;;;;;;;;;6.70;74.70;;;;;;5044385;28;87495;-39
2022/11/25 11:59:54;;;;;;;;;;;6.70;74.70;;;;;;5044085;28;88260;-39
2022/11/25 12:02:25;;;;;;;;;;;6.70;74.70;;;;;;5044372;28;87092;-39
2022/11/25 12:04:54;;;;;;;;;;;6.70;74.70;;;;;;5044271;28;87483;-39
2022/11/25 12:07:30;;;;;;;;;;;6.80;74.60;;;;;;5043607;28;88267;-39
2022/11/25 12:09:58;;;;;;;;;;;6.80;74.60;;;;;;5044775;28;86296;-39
2022/11/25 12:12:31;;;;;;;;;;;6.80;74.70;;;;;;5046873;27;87031;-39
2022/11/25 12:15:01;;;;;;;;;;;6.80;74.70;;;;;;5044264;28;86978;-39
2022/11/25 12:17:33;;;;;;;;;;;6.80;74.70;;;;;;5043201;27;89312;-39
2022/11/25 12:20:17;;;;;;;;;;;6.80;74.70;;;;;;5043329;28;88171;-39
2022/11/25 12:22:49;;;;;;;;;;;6.80;74.70;;;;;;5044143;27;87219;-39
2022/11/25 12:25:28;;;;;;;;;;;6.80;74.70;;;;;;5043744;28;87669;-39
2022/11/25 12:28:00;;;;;;;;;;;6.80;74.80;;;;;;5043638;28;87979;-39
2022/11/25 12:30:32;;;;;;;;;;;6.70;74.80;;;;;;5043563;28;86991;-39
2022/11/25 12:33:11;;;;;;;;;;;6.80;74.90;;;;;;5046443;27;87382;-39
2022/11/25 12:35:57;;;;;;;;;;;6.70;75.00;;;;;;5044091;28;86214;-39
2022/11/25 12:38:44;;;;;;;;;;;6.70;75.00;;;;;;5021552;27;87128;-39
2022/11/25 12:41:24;;;;;;;;;;;6.70;75.10;;;;;;5043439;28;87995;-39
2022/11/25 12:43:57;;;;;;;;;;;6.80;75.00;;;;;;5042758;28;88589;-39
2022/11/25 12:46:38;;;;;;;;;;;6.70;75.10;;;;;;5043030;27;88355;-39
2022/11/25 12:49:05;;;;;;;;;;;6.70;75.00;;;;;;5042850;28;88168;-39
2022/11/25 12:51:49;;;;;;;;;;;6.70;75.10;;;;;;5043526;28;87066;-40
2022/11/25 12:54:38;;;;;;;;;;;6.70;75.00;;;;;;5042742;27;86906;-40
2022/11/25 12:57:21;;;;;;;;;;;6.70;75.00;;;;;;5046173;28;88068;-39
2022/11/25 13:00:02;;;;;;;;;;;6.70;75.20;;;;;;5043607;28;87405;-39
2022/11/25 13:02:27;;;;;;;;;;;6.70;75.10;;;;;;5043431;28;88074;-39
2022/11/25 13:04:53;;;;;;;;;;;6.70;75.00;;;;;;5043427;28;87124;-39
2022/11/25 13:07:30;;;;;;;;;;;6.80;75.80;;;;;;5043266;27;87334;-40
2022/11/25 13:10:14;;;;;;;;;;;6.70;75.10;;;;;;5042243;28;89157;-40
2022/11/25 13:12:42;;;;;;;;;;;6.70;75.10;;;;;;5043144;27;87131;-40
2022/11/25 13:15:11;;;;;;;;;;;6.80;75.10;;;;;;5043205;28;87450;-40
2022/11/25 13:17:39;;;;;;;;;;;6.80;75.00;;;;;;5042751;28;88728;-39
2022/11/25 13:20:23;;;;;;;;;;;6.80;75.70;;;;;;5046120;28;87128;-39
2022/11/25 13:23:04;;;;;;;;;;;6.80;75.00;;;;;;5043004;27;88016;-39
2022/11/25 13:25:30;;;;;;;;;;;6.80;75.20;;;;;;5042928;28;87155;-39
2022/11/25 13:27:57;;;;;;;;;;;6.70;75.10;;;;;;5043339;27;88656;-39
2022/11/25 13:30:31;;;;;;;;;;;6.80;75.10;;;;;;5042547;28;88179;-40
2022/11/25 13:33:16;;;;;;;;;;;6.80;75.10;;;;;;5042648;28;87489;-39
2022/11/25 13:35:42;;;;;;;;;;;6.80;75.00;;;;;;5042251;28;87892;-39
2022/11/25 13:38:27;;;;;;;;;;;6.80;75.00;;;;;;5042853;28;88196;-39
2022/11/25 13:41:00;;;;;;;;;;;6.80;75.00;;;;;;5042265;28;87083;-39
2022/11/25 13:43:26;;;;;;;;;;;6.80;75.20;;;;;;5045036;27;87647;-39
2022/11/25 13:45:53;;;;;;;;;;;6.70;75.10;;;;;;5041753;28;86947;-39
2022/11/25 13:48:20;;;;;;;;;;;6.80;75.10;;;;;;5042646;27;87320;-39
2022/11/25 13:50:46;;;;;;;;;;;6.80;75.10;;;;;;5042437;28;87996;-40
2022/11/25 13:53:27;;;;;;;;;;;6.80;75.00;;;;;;5043271;28;86393;-40
2022/11/25 13:56:10;;;;;;;;;;;6.80;75.00;;;;;;5042424;27;86934;-39
2022/11/25 13:58:36;;;;;;;;;;;6.80;75.00;;;;;;5042586;28;87149;-39
2022/11/25 14:01:18;;;;;;;;;;;6.80;75.00;;;;;;5041914;28;88370;-39
2022/11/25 14:03:44;;;;;;;;;;;6.80;75.10;;;;;;5042679;27;88391;-39
2022/11/25 14:06:13;;;;;;;;;;;6.90;75.00;;;;;;5048641;28;89500;-40
2022/11/25 14:08:45;;;;;;;;;;;6.90;75.10;;;;;;5046047;28;87574;-40
2022/11/25 14:11:13;;;;;;;;;;;6.90;75.00;;;;;;5046102;28;88171;-39
2022/11/25 14:13:53;;;;;;;;;;;6.80;75.00;;;;;;5046145;28;87150;-39
2022/11/25 14:16:22;;;;;;;;;;;6.90;75.00;;;;;;5046179;28;87403;-39
2022/11/25 14:19:15;;;;;;;;;;;6.80;75.00;;;;;;5046113;28;87265;-39
2022/11/25 14:21:52;;;;;;;;;;;6.90;75.10;;;;;;5046232;28;87063;-39
2022/11/25 14:24:19;;;;;;;;;;;6.80;74.90;;;;;;5045796;28;87270;-39
2022/11/25 14:26:45;;;;;;;;;;;6.90;75.00;;;;;;5044718;28;89016;-39
2022/11/25 14:29:29;;;;;;;;;;;6.80;75.00;;;;;;5048378;28;86849;-40
2022/11/25 14:32:03;;;;;;;;;;;6.80;75.00;;;;;;5044824;28;89283;-40
2022/11/25 14:34:32;;;;;;;;;;;6.90;75.00;;;;;;5045720;28;87123;-40
2022/11/25 14:37:00;;;;;;;;;;;6.90;75.00;;;;;;5045758;27;86916;-40
2022/11/25 14:39:35;;;;;;;;;;;6.90;74.90;;;;;;5044945;28;88192;-40
2022/11/25 14:42:27;;;;;;;;;;;6.80;74.90;;;;;;5045348;28;87169;-40
2022/11/25 14:44:59;;;;;;;;;;;6.80;74.90;;;;;;5043430;28;87457;-39
2022/11/25 14:47:31;;;;;;;;;;;6.80;75.00;;;;;;5044907;28;89347;-39